ASA5T PACV-PASI
Flight info
| Callsign | ASA5T |
|---|---|
| Flight time | 1h 6m |
| Altitude | 35000 |
| Route | CASEL7 CASEL YAK |
| Aircraft | B738/M-SDE2E3FGHIRWXY/LB1 |
Departure
| Time | 2026-04-28 19:41 |
|---|---|
| Airport | Merle K (Mudhole) Smith Airport (PACV) |
Arrival
| Time | 2026-04-28 20:47 |
|---|---|
| Airport | Sitka Rocky Gutierrez Airport (PASI) |
| Time | Latitude | Longitude | Altitude | Speed | Heading |
|---|---|---|---|---|---|
| 2026-04-28 19:20 | 60.49377 | -145.47228 | 94 ft | 0 kts | 16° |
| 2026-04-28 19:34 | 60.49367 | -145.47234 | 96 ft | 4 kts | 356° |
| 2026-04-28 19:34 | 60.49350 | -145.47211 | 96 ft | 4 kts | 298° |
| 2026-04-28 19:34 | 60.49342 | -145.47178 | 94 ft | 1 kts | 294° |
| 2026-04-28 19:35 | 60.49341 | -145.47173 | 94 ft | 0 kts | 294° |
| 2026-04-28 19:36 | 60.49344 | -145.47190 | 94 ft | 5 kts | 294° |
| 2026-04-28 19:37 | 60.49368 | -145.47299 | 95 ft | 12 kts | 292° |
| 2026-04-28 19:37 | 60.49377 | -145.47359 | 94 ft | 14 kts | 273° |
| 2026-04-28 19:37 | 60.49255 | -145.47536 | 92 ft | 13 kts | 203° |
| 2026-04-28 19:37 | 60.49231 | -145.47688 | 93 ft | 13 kts | 291° |
| 2026-04-28 19:38 | 60.49271 | -145.47875 | 90 ft | 17 kts | 294° |
| 2026-04-28 19:38 | 60.49321 | -145.48105 | 89 ft | 18 kts | 293° |
| 2026-04-28 19:38 | 60.49371 | -145.48333 | 88 ft | 17 kts | 294° |
| 2026-04-28 19:38 | 60.49418 | -145.48552 | 89 ft | 17 kts | 293° |
| 2026-04-28 19:39 | 60.49463 | -145.48766 | 87 ft | 16 kts | 293° |
| 2026-04-28 19:39 | 60.49505 | -145.48972 | 87 ft | 16 kts | 292° |
| 2026-04-28 19:39 | 60.49545 | -145.49170 | 88 ft | 15 kts | 292° |
| 2026-04-28 19:39 | 60.49584 | -145.49361 | 92 ft | 14 kts | 292° |
| 2026-04-28 19:40 | 60.49611 | -145.49551 | 86 ft | 14 kts | 276° |
| 2026-04-28 19:40 | 60.49648 | -145.49633 | 89 ft | 9 kts | 11° |
| 2026-04-28 19:40 | 60.49639 | -145.49523 | 90 ft | 9 kts | 118° |
| 2026-04-28 19:40 | 60.49554 | -145.49140 | 91 ft | 62 kts | 114° |
| 2026-04-28 19:41 | 60.49386 | -145.48384 | 88 ft | 111 kts | 114° |
| 2026-04-28 19:41 | 60.48966 | -145.46605 | 210 ft | 160 kts | 117° |
| 2026-04-28 19:41 | 60.48467 | -145.44538 | 958 ft | 166 kts | 117° |
| 2026-04-28 19:41 | 60.47790 | -145.42561 | 1584 ft | 185 kts | 135° |
| 2026-04-28 19:42 | 60.46714 | -145.40865 | 2145 ft | 201 kts | 147° |
| 2026-04-28 19:42 | 60.45556 | -145.39225 | 2944 ft | 205 kts | 146° |
| 2026-04-28 19:42 | 60.44361 | -145.37479 | 3531 ft | 224 kts | 146° |
| 2026-04-28 19:42 | 60.43024 | -145.35522 | 4060 ft | 244 kts | 146° |
| 2026-04-28 19:43 | 60.41657 | -145.33508 | 5127 ft | 242 kts | 146° |
| 2026-04-28 19:43 | 60.40284 | -145.31484 | 6063 ft | 247 kts | 146° |
| 2026-04-28 19:43 | 60.38886 | -145.29384 | 6941 ft | 252 kts | 143° |
| 2026-04-28 19:43 | 60.37857 | -145.26493 | 7845 ft | 261 kts | 112° |
| 2026-04-28 19:44 | 60.37391 | -145.22909 | 8776 ft | 266 kts | 106° |
| 2026-04-28 19:44 | 60.36986 | -145.19232 | 9657 ft | 270 kts | 106° |
| 2026-04-28 19:44 | 60.36568 | -145.15490 | 10427 ft | 278 kts | 107° |
| 2026-04-28 19:44 | 60.36105 | -145.11509 | 10685 ft | 304 kts | 107° |
| 2026-04-28 19:45 | 60.35590 | -145.07239 | 10948 ft | 326 kts | 108° |
| 2026-04-28 19:45 | 60.35035 | -145.02748 | 11718 ft | 331 kts | 109° |
| 2026-04-28 19:45 | 60.34465 | -144.98243 | 12600 ft | 332 kts | 109° |
| 2026-04-28 19:45 | 60.33882 | -144.93719 | 13459 ft | 335 kts | 109° |
| 2026-04-28 19:46 | 60.33286 | -144.89149 | 14248 ft | 338 kts | 110° |
| 2026-04-28 19:46 | 60.32678 | -144.84528 | 14939 ft | 343 kts | 110° |
| 2026-04-28 19:46 | 60.32053 | -144.79836 | 15668 ft | 348 kts | 111° |
| 2026-04-28 19:46 | 60.31420 | -144.75114 | 16459 ft | 350 kts | 111° |
| 2026-04-28 19:47 | 60.30778 | -144.70346 | 17201 ft | 354 kts | 111° |
| 2026-04-28 19:47 | 60.30124 | -144.65499 | 17915 ft | 359 kts | 112° |
| 2026-04-28 19:47 | 60.29467 | -144.60669 | 18594 ft | 363 kts | 112° |
| 2026-04-28 19:47 | 60.28791 | -144.55719 | 19243 ft | 367 kts | 112° |
| 2026-04-28 19:48 | 60.28110 | -144.50726 | 19937 ft | 369 kts | 113° |
| 2026-04-28 19:48 | 60.27434 | -144.45782 | 20540 ft | 372 kts | 113° |
| 2026-04-28 19:48 | 60.26761 | -144.40690 | 21110 ft | 380 kts | 109° |
| 2026-04-28 19:48 | 60.26175 | -144.35466 | 21733 ft | 382 kts | 113° |
| 2026-04-28 19:49 | 60.25452 | -144.30286 | 22258 ft | 385 kts | 115° |
| 2026-04-28 19:49 | 60.24692 | -144.25105 | 22849 ft | 386 kts | 115° |
| 2026-04-28 19:49 | 60.23938 | -144.19977 | 23422 ft | 388 kts | 115° |
| 2026-04-28 19:49 | 60.23171 | -144.14706 | 23880 ft | 392 kts | 115° |
| 2026-04-28 19:50 | 60.21649 | -144.04113 | 24745 ft | 399 kts | 115° |
| 2026-04-28 19:50 | 60.20881 | -143.98718 | 25201 ft | 402 kts | 115° |
| 2026-04-28 19:50 | 60.20108 | -143.93285 | 25634 ft | 406 kts | 115° |
| 2026-04-28 19:51 | 60.19328 | -143.87803 | 26096 ft | 409 kts | 115° |
| 2026-04-28 19:51 | 60.18541 | -143.82280 | 26518 ft | 411 kts | 115° |
| 2026-04-28 19:51 | 60.17748 | -143.76731 | 26928 ft | 414 kts | 115° |
| 2026-04-28 19:51 | 60.16945 | -143.71133 | 27322 ft | 417 kts | 115° |
| 2026-04-28 19:52 | 60.16146 | -143.65583 | 27711 ft | 420 kts | 115° |
| 2026-04-28 19:52 | 60.15328 | -143.59913 | 28100 ft | 423 kts | 115° |
| 2026-04-28 19:52 | 60.14501 | -143.54213 | 28504 ft | 426 kts | 115° |
| 2026-04-28 19:52 | 60.13664 | -143.48454 | 28918 ft | 429 kts | 115° |
| 2026-04-28 19:53 | 60.12832 | -143.42750 | 29286 ft | 432 kts | 115° |
| 2026-04-28 19:53 | 60.11983 | -143.36954 | 29666 ft | 434 kts | 115° |
| 2026-04-28 19:53 | 60.11126 | -143.31122 | 30007 ft | 437 kts | 115° |
| 2026-04-28 19:53 | 60.10256 | -143.25224 | 30288 ft | 440 kts | 115° |
| 2026-04-28 19:54 | 60.09396 | -143.19407 | 30670 ft | 440 kts | 115° |
| 2026-04-28 19:54 | 60.08530 | -143.13547 | 31186 ft | 436 kts | 115° |
| 2026-04-28 19:54 | 60.07666 | -143.07725 | 31653 ft | 433 kts | 115° |
| 2026-04-28 19:54 | 60.06801 | -143.01930 | 32068 ft | 433 kts | 115° |
| 2026-04-28 19:55 | 60.05943 | -142.96218 | 32349 ft | 433 kts | 116° |
| 2026-04-28 19:55 | 60.05071 | -142.90442 | 32648 ft | 434 kts | 116° |
| 2026-04-28 19:55 | 60.04192 | -142.84639 | 32970 ft | 436 kts | 115° |
| 2026-04-28 19:55 | 60.03303 | -142.78793 | 33084 ft | 440 kts | 115° |
| 2026-04-28 19:56 | 60.02406 | -142.72912 | 33095 ft | 442 kts | 115° |
| 2026-04-28 19:56 | 60.00625 | -142.61233 | 33086 ft | 435 kts | 116° |
| 2026-04-28 19:57 | 59.98862 | -142.49768 | 33106 ft | 434 kts | 116° |
| 2026-04-28 19:57 | 59.97068 | -142.38230 | 33109 ft | 435 kts | 116° |
| 2026-04-28 19:58 | 59.95259 | -142.26649 | 33088 ft | 435 kts | 116° |
| 2026-04-28 19:58 | 59.93460 | -142.15180 | 33101 ft | 436 kts | 116° |
| 2026-04-28 19:59 | 59.91637 | -142.03655 | 33119 ft | 436 kts | 116° |
| 2026-04-28 19:59 | 59.89797 | -141.92100 | 33122 ft | 437 kts | 116° |
| 2026-04-28 20:00 | 59.87954 | -141.80626 | 33130 ft | 436 kts | 116° |
| 2026-04-28 20:00 | 59.86101 | -141.69105 | 33137 ft | 435 kts | 117° |
| 2026-04-28 20:01 | 59.84255 | -141.57727 | 33136 ft | 434 kts | 117° |
| 2026-04-28 20:01 | 59.82387 | -141.46307 | 33138 ft | 433 kts | 117° |
| 2026-04-28 20:02 | 59.80512 | -141.34909 | 33136 ft | 433 kts | 117° |
| 2026-04-28 20:02 | 59.78629 | -141.23538 | 33134 ft | 433 kts | 117° |
| 2026-04-28 20:03 | 59.76738 | -141.12217 | 33155 ft | 438 kts | 117° |
| 2026-04-28 20:03 | 59.74774 | -141.00542 | 33103 ft | 450 kts | 117° |
| 2026-04-28 20:04 | 59.72795 | -140.88801 | 33137 ft | 453 kts | 117° |
| 2026-04-28 20:04 | 59.70793 | -140.76965 | 33146 ft | 452 kts | 117° |
| 2026-04-28 20:05 | 59.68781 | -140.65174 | 33149 ft | 452 kts | 117° |
| 2026-04-28 20:05 | 59.66754 | -140.53395 | 33148 ft | 453 kts | 117° |
| 2026-04-28 20:06 | 59.64724 | -140.41671 | 33153 ft | 452 kts | 118° |
| 2026-04-28 20:06 | 59.62682 | -140.29940 | 33154 ft | 450 kts | 118° |
| 2026-04-28 20:07 | 59.60634 | -140.18259 | 33172 ft | 449 kts | 118° |
| 2026-04-28 20:07 | 59.58574 | -140.06582 | 33185 ft | 449 kts | 118° |
| 2026-04-28 20:08 | 59.56518 | -139.94999 | 33180 ft | 450 kts | 118° |
| 2026-04-28 20:08 | 59.54435 | -139.83323 | 33190 ft | 450 kts | 118° |
| 2026-04-28 20:09 | 59.52330 | -139.71774 | 33144 ft | 447 kts | 122° |
| 2026-04-28 20:09 | 59.50911 | -139.66421 | 33172 ft | 435 kts | 132° |
| 2026-04-28 20:09 | 59.49112 | -139.61712 | 33178 ft | 426 kts | 140° |
| 2026-04-28 20:10 | 59.44836 | -139.54014 | 33174 ft | 417 kts | 147° |
| 2026-04-28 20:10 | 59.40397 | -139.46592 | 33177 ft | 419 kts | 147° |
| 2026-04-28 20:11 | 59.35960 | -139.39139 | 33189 ft | 420 kts | 147° |
| 2026-04-28 20:11 | 59.31544 | -139.31712 | 33123 ft | 420 kts | 147° |
| 2026-04-28 20:12 | 59.27114 | -139.24269 | 33178 ft | 419 kts | 147° |
| 2026-04-28 20:12 | 59.22675 | -139.16847 | 33194 ft | 419 kts | 147° |
| 2026-04-28 20:13 | 59.18247 | -139.09472 | 33184 ft | 420 kts | 147° |
| 2026-04-28 20:13 | 59.13785 | -139.02063 | 33191 ft | 422 kts | 147° |
| 2026-04-28 20:14 | 59.09299 | -138.94635 | 33197 ft | 423 kts | 147° |
| 2026-04-28 20:14 | 59.04833 | -138.87262 | 33185 ft | 423 kts | 147° |
| 2026-04-28 20:15 | 59.00336 | -138.79865 | 33207 ft | 422 kts | 147° |
| 2026-04-28 20:15 | 58.95847 | -138.72510 | 33203 ft | 424 kts | 147° |
| 2026-04-28 20:16 | 58.91317 | -138.65125 | 33217 ft | 425 kts | 147° |
| 2026-04-28 20:16 | 58.86774 | -138.57749 | 33201 ft | 426 kts | 147° |
| 2026-04-28 20:17 | 58.82262 | -138.50436 | 33192 ft | 425 kts | 147° |
| 2026-04-28 20:17 | 58.77720 | -138.43103 | 33198 ft | 421 kts | 147° |
| 2026-04-28 20:18 | 58.73338 | -138.36030 | 33197 ft | 409 kts | 147° |
| 2026-04-28 20:18 | 58.68965 | -138.29023 | 33211 ft | 409 kts | 147° |
| 2026-04-28 20:19 | 58.64598 | -138.22055 | 33221 ft | 410 kts | 147° |
| 2026-04-28 20:19 | 58.60196 | -138.15050 | 33220 ft | 410 kts | 147° |
| 2026-04-28 20:19 | 58.58016 | -138.11587 | 33015 ft | 409 kts | 147° |
| 2026-04-28 20:20 | 58.55836 | -138.08123 | 32722 ft | 401 kts | 147° |
| 2026-04-28 20:20 | 58.53691 | -138.04717 | 32313 ft | 396 kts | 148° |
| 2026-04-28 20:20 | 58.51562 | -138.01440 | 31891 ft | 390 kts | 148° |
| 2026-04-28 20:20 | 58.49503 | -137.98230 | 31500 ft | 385 kts | 148° |
| 2026-04-28 20:21 | 58.47449 | -137.94962 | 31110 ft | 381 kts | 147° |
| 2026-04-28 20:21 | 58.45422 | -137.91713 | 30715 ft | 378 kts | 148° |
| 2026-04-28 20:21 | 58.43400 | -137.88522 | 30315 ft | 375 kts | 148° |
| 2026-04-28 20:21 | 58.41387 | -137.85366 | 29864 ft | 372 kts | 148° |
| 2026-04-28 20:22 | 58.39397 | -137.82253 | 29449 ft | 368 kts | 148° |
| 2026-04-28 20:22 | 58.37428 | -137.79158 | 29015 ft | 363 kts | 148° |
| 2026-04-28 20:22 | 58.35510 | -137.76154 | 28649 ft | 358 kts | 148° |
| 2026-04-28 20:22 | 58.33586 | -137.73153 | 28261 ft | 355 kts | 148° |
| 2026-04-28 20:23 | 58.31681 | -137.70185 | 27861 ft | 353 kts | 148° |
| 2026-04-28 20:23 | 58.29782 | -137.67234 | 27477 ft | 351 kts | 148° |
| 2026-04-28 20:23 | 58.27891 | -137.64299 | 27093 ft | 349 kts | 149° |
| 2026-04-28 20:23 | 58.26644 | -137.62367 | 26835 ft | 350 kts | 149° |
| 2026-04-28 20:24 | 58.24081 | -137.58416 | 26330 ft | 362 kts | 149° |
| 2026-04-28 20:24 | 58.22110 | -137.55370 | 25917 ft | 365 kts | 148° |
| 2026-04-28 20:24 | 58.20172 | -137.52365 | 25521 ft | 362 kts | 148° |
| 2026-04-28 20:24 | 58.18221 | -137.49353 | 25123 ft | 359 kts | 149° |
| 2026-04-28 20:25 | 58.16287 | -137.46374 | 24725 ft | 357 kts | 149° |
| 2026-04-28 20:25 | 58.14362 | -137.43417 | 24294 ft | 354 kts | 148° |
| 2026-04-28 20:25 | 58.12450 | -137.40484 | 23919 ft | 352 kts | 149° |
| 2026-04-28 20:25 | 58.10578 | -137.37612 | 23504 ft | 350 kts | 148° |
| 2026-04-28 20:26 | 58.08691 | -137.34724 | 23071 ft | 348 kts | 149° |
| 2026-04-28 20:26 | 58.06813 | -137.31856 | 22679 ft | 345 kts | 149° |
| 2026-04-28 20:26 | 58.04953 | -137.29020 | 22292 ft | 342 kts | 149° |
| 2026-04-28 20:26 | 58.03097 | -137.26192 | 21905 ft | 340 kts | 148° |
| 2026-04-28 20:27 | 58.01884 | -137.24347 | 21650 ft | 338 kts | 148° |
| 2026-04-28 20:27 | 58.00061 | -137.21573 | 21279 ft | 335 kts | 148° |
| 2026-04-28 20:27 | 57.98249 | -137.18822 | 20897 ft | 333 kts | 148° |
| 2026-04-28 20:27 | 57.96442 | -137.16083 | 20534 ft | 331 kts | 148° |
| 2026-04-28 20:28 | 57.94650 | -137.13370 | 20173 ft | 329 kts | 148° |
| 2026-04-28 20:28 | 57.92864 | -137.10668 | 19809 ft | 328 kts | 148° |
| 2026-04-28 20:28 | 57.91107 | -137.08016 | 19423 ft | 327 kts | 148° |
| 2026-04-28 20:28 | 57.89331 | -137.05338 | 19068 ft | 326 kts | 148° |
| 2026-04-28 20:29 | 57.87556 | -137.02664 | 18715 ft | 325 kts | 148° |
| 2026-04-28 20:29 | 57.85817 | -137.00048 | 18336 ft | 324 kts | 148° |
| 2026-04-28 20:29 | 57.84056 | -136.97402 | 17938 ft | 323 kts | 148° |
| 2026-04-28 20:29 | 57.82304 | -136.94772 | 17561 ft | 321 kts | 148° |
| 2026-04-28 20:30 | 57.80563 | -136.92162 | 17189 ft | 319 kts | 148° |
| 2026-04-28 20:30 | 57.78830 | -136.89567 | 16836 ft | 317 kts | 148° |
| 2026-04-28 20:30 | 57.77098 | -136.86980 | 16255 ft | 323 kts | 148° |
| 2026-04-28 20:30 | 57.75361 | -136.84390 | 15870 ft | 322 kts | 147° |
| 2026-04-28 20:31 | 57.73605 | -136.81771 | 15475 ft | 321 kts | 147° |
| 2026-04-28 20:31 | 57.71862 | -136.79175 | 15114 ft | 320 kts | 147° |
| 2026-04-28 20:31 | 57.70117 | -136.76578 | 14749 ft | 319 kts | 147° |
| 2026-04-28 20:31 | 57.68384 | -136.74004 | 14375 ft | 318 kts | 147° |
| 2026-04-28 20:32 | 57.66656 | -136.71441 | 14015 ft | 316 kts | 147° |
| 2026-04-28 20:32 | 57.64934 | -136.68889 | 13621 ft | 315 kts | 147° |
| 2026-04-28 20:32 | 57.63223 | -136.66355 | 13253 ft | 313 kts | 147° |
| 2026-04-28 20:32 | 57.61518 | -136.63834 | 12889 ft | 312 kts | 146° |
| 2026-04-28 20:33 | 57.59842 | -136.61357 | 12539 ft | 310 kts | 146° |
| 2026-04-28 20:33 | 57.58156 | -136.58871 | 12170 ft | 308 kts | 146° |
| 2026-04-28 20:33 | 57.56479 | -136.56400 | 11816 ft | 306 kts | 146° |
| 2026-04-28 20:33 | 57.54807 | -136.53941 | 11483 ft | 305 kts | 146° |
| 2026-04-28 20:34 | 57.53144 | -136.51497 | 11135 ft | 304 kts | 146° |
| 2026-04-28 20:34 | 57.51487 | -136.49064 | 10790 ft | 303 kts | 146° |
| 2026-04-28 20:34 | 57.49837 | -136.46646 | 10451 ft | 301 kts | 146° |
| 2026-04-28 20:34 | 57.48210 | -136.44261 | 10297 ft | 293 kts | 146° |
| 2026-04-28 20:35 | 57.46624 | -136.41940 | 10156 ft | 286 kts | 146° |
| 2026-04-28 20:35 | 57.45100 | -136.39712 | 9991 ft | 279 kts | 146° |
| 2026-04-28 20:35 | 57.43592 | -136.37509 | 9762 ft | 275 kts | 146° |
| 2026-04-28 20:35 | 57.42097 | -136.35330 | 9505 ft | 272 kts | 146° |
| 2026-04-28 20:36 | 57.40611 | -136.33170 | 9223 ft | 270 kts | 146° |
| 2026-04-28 20:36 | 57.39139 | -136.31024 | 8953 ft | 269 kts | 144° |
| 2026-04-28 20:36 | 57.37951 | -136.28324 | 8649 ft | 274 kts | 121° |
| 2026-04-28 20:36 | 57.37110 | -136.25144 | 8376 ft | 274 kts | 119° |
| 2026-04-28 20:37 | 57.36283 | -136.21965 | 8092 ft | 273 kts | 119° |
| 2026-04-28 20:37 | 57.35468 | -136.18848 | 7818 ft | 271 kts | 120° |
| 2026-04-28 20:37 | 57.34640 | -136.15713 | 7546 ft | 270 kts | 120° |
| 2026-04-28 20:37 | 57.33812 | -136.12587 | 7278 ft | 268 kts | 120° |
| 2026-04-28 20:38 | 57.32991 | -136.09497 | 7008 ft | 267 kts | 120° |
| 2026-04-28 20:38 | 57.32168 | -136.06411 | 6730 ft | 266 kts | 120° |
| 2026-04-28 20:38 | 57.31358 | -136.03389 | 6472 ft | 263 kts | 120° |
| 2026-04-28 20:38 | 57.30544 | -136.00360 | 6192 ft | 262 kts | 120° |
| 2026-04-28 20:39 | 57.29735 | -135.97353 | 5935 ft | 260 kts | 120° |
| 2026-04-28 20:39 | 57.28931 | -135.94363 | 5678 ft | 258 kts | 120° |
| 2026-04-28 20:39 | 57.28132 | -135.91401 | 5407 ft | 257 kts | 119° |
| 2026-04-28 20:39 | 57.27348 | -135.88493 | 5157 ft | 255 kts | 119° |
| 2026-04-28 20:40 | 57.26553 | -135.85550 | 4909 ft | 253 kts | 119° |
| 2026-04-28 20:40 | 57.25769 | -135.82658 | 4702 ft | 250 kts | 119° |
| 2026-04-28 20:40 | 57.24944 | -135.79904 | 4575 ft | 238 kts | 121° |
| 2026-04-28 20:40 | 57.24275 | -135.77228 | 4479 ft | 225 kts | 116° |
| 2026-04-28 20:41 | 57.23669 | -135.74652 | 4405 ft | 211 kts | 119° |
| 2026-04-28 20:41 | 57.23035 | -135.72341 | 4328 ft | 195 kts | 119° |
| 2026-04-28 20:41 | 57.22439 | -135.70171 | 4284 ft | 187 kts | 121° |
| 2026-04-28 20:41 | 57.21832 | -135.68014 | 4127 ft | 190 kts | 120° |
| 2026-04-28 20:42 | 57.21149 | -135.66033 | 3947 ft | 183 kts | 133° |
| 2026-04-28 20:42 | 57.20284 | -135.64341 | 3773 ft | 180 kts | 139° |
| 2026-04-28 20:42 | 57.19381 | -135.62716 | 3579 ft | 182 kts | 138° |
| 2026-04-28 20:42 | 57.18480 | -135.61096 | 3390 ft | 180 kts | 139° |
| 2026-04-28 20:43 | 57.17589 | -135.59482 | 3176 ft | 179 kts | 137° |
| 2026-04-28 20:43 | 57.16705 | -135.57883 | 2995 ft | 177 kts | 138° |
| 2026-04-28 20:43 | 57.15833 | -135.56300 | 2809 ft | 178 kts | 138° |
| 2026-04-28 20:43 | 57.14950 | -135.54704 | 2644 ft | 177 kts | 137° |
| 2026-04-28 20:44 | 57.14060 | -135.53094 | 2442 ft | 181 kts | 138° |
| 2026-04-28 20:44 | 57.13165 | -135.51468 | 2193 ft | 178 kts | 137° |
| 2026-04-28 20:44 | 57.12327 | -135.49880 | 1944 ft | 169 kts | 137° |
| 2026-04-28 20:44 | 57.11489 | -135.48415 | 1740 ft | 165 kts | 138° |
| 2026-04-28 20:45 | 57.10665 | -135.46942 | 1539 ft | 167 kts | 136° |
| 2026-04-28 20:45 | 57.09831 | -135.45432 | 1323 ft | 167 kts | 137° |
| 2026-04-28 20:45 | 57.09032 | -135.43974 | 1121 ft | 155 kts | 136° |
| 2026-04-28 20:45 | 57.08284 | -135.42625 | 884 ft | 147 kts | 137° |
| 2026-04-28 20:46 | 57.07557 | -135.41295 | 695 ft | 146 kts | 136° |
| 2026-04-28 20:46 | 57.06828 | -135.39974 | 514 ft | 151 kts | 136° |
| 2026-04-28 20:46 | 57.06076 | -135.38606 | 299 ft | 152 kts | 137° |
| 2026-04-28 20:46 | 57.05317 | -135.37251 | 88 ft | 153 kts | 136° |
| 2026-04-28 20:47 | 57.04611 | -135.35978 | 36 ft | 125 kts | 136° |
| 2026-04-28 20:47 | 57.04149 | -135.35143 | 32 ft | 61 kts | 135° |
| 2026-04-28 20:47 | 57.03992 | -135.34892 | 31 ft | 3 kts | 117° |
| 2026-04-28 20:47 | 57.04015 | -135.34880 | 30 ft | 7 kts | 330° |
| 2026-04-28 20:48 | 57.04067 | -135.34985 | 32 ft | 14 kts | 310° |
| 2026-04-28 20:48 | 57.04146 | -135.35136 | 32 ft | 17 kts | 315° |
| 2026-04-28 20:48 | 57.04227 | -135.35287 | 33 ft | 17 kts | 314° |
| 2026-04-28 20:48 | 57.04307 | -135.35434 | 34 ft | 16 kts | 316° |
| 2026-04-28 20:49 | 57.04385 | -135.35573 | 33 ft | 15 kts | 315° |
| 2026-04-28 20:49 | 57.04459 | -135.35708 | 33 ft | 15 kts | 314° |
| 2026-04-28 20:49 | 57.04529 | -135.35836 | 34 ft | 14 kts | 316° |
| 2026-04-28 20:49 | 57.04599 | -135.35959 | 36 ft | 14 kts | 315° |
| 2026-04-28 20:50 | 57.04681 | -135.36110 | 35 ft | 18 kts | 315° |
| 2026-04-28 20:50 | 57.04768 | -135.36266 | 37 ft | 17 kts | 321° |
| 2026-04-28 20:50 | 57.04880 | -135.36306 | 35 ft | 16 kts | 359° |
| 2026-04-28 20:50 | 57.04983 | -135.36372 | 36 ft | 16 kts | 319° |
| 2026-04-28 20:51 | 57.05058 | -135.36510 | 35 ft | 15 kts | 315° |
| 2026-04-28 20:51 | 57.05131 | -135.36646 | 36 ft | 15 kts | 314° |
| 2026-04-28 20:51 | 57.05198 | -135.36762 | 37 ft | 11 kts | 326° |
| 2026-04-28 20:51 | 57.05228 | -135.36739 | 37 ft | 7 kts | 54° |
| 2026-04-28 20:52 | 57.05271 | -135.36655 | 37 ft | 2 kts | 45° |